Ambato, Chachoan Airport (SEAM)

NameChachoan Airport
CityAmbato
CountryEcuador
ICAOSEAM
IATAATF
Altitude2591 m
CoordinatesGoogle Map
Live Air TrafficLiveATC.net
METARSEAM 122100Z 15006KT 9999 SCT020 BKN100 20/13 Q1022
2019-11-12 21:00:00 Wind: Southeast (150°) 3.09 m/s - Visibility: > 10000 m - Temperature: 20 °C - Dew point: 13 °C - Humidity: 64.2% - Pressure: 1022 hPa

Sorry, no flights used the airport in this database.